Time;durP1;ratioP1;P1;durP2;ratioP2;P2;SDS_P1;SDS_P2;PMS_P1;PMS_P2;Temp;Humidity;BMP_temperature;BMP_pressure;BME280_temperature;BME280_humidity;BME280_pressure;Samples;Min_cycle;Max_cycle;Signal;HPM_P1;HPM_P2
2020/12/11 00:01:38;;;;;;;67.43;33.47;;;3.90;99.90;;;;;;5040049;28;20481;-79
2020/12/11 00:04:06;;;;;;;68.87;35.17;;;4.00;99.90;;;;;;5040846;28;20450;-79
2020/12/11 00:06:34;;;;;;;72.60;33.37;;;3.90;99.90;;;;;;5055775;28;20470;-79
2020/12/11 00:09:01;;;;;;;69.50;34.30;;;3.90;99.90;;;;;;5041955;28;20488;-79
2020/12/11 00:11:29;;;;;;;66.50;33.43;;;3.90;99.90;;;;;;5058613;28;20930;-79
2020/12/11 00:13:57;;;;;;;72.37;37.30;;;3.90;99.90;;;;;;5044427;28;20443;-79
2020/12/11 00:16:24;;;;;;;69.40;32.57;;;3.90;99.90;;;;;;5059090;28;20443;-79
2020/12/11 00:18:52;;;;;;;73.03;36.93;;;4.00;99.90;;;;;;5060401;28;20530;-79
2020/12/11 00:21:20;;;;;;;73.60;34.10;;;4.00;99.90;;;;;;5044128;28;20478;-79
2020/12/11 00:23:48;;;;;;;69.07;34.60;;;3.90;99.90;;;;;;5044279;28;20435;-79
2020/12/11 00:26:16;;;;;;;77.23;36.60;;;3.90;99.90;;;;;;5044193;28;20520;-79
2020/12/11 00:28:43;;;;;;;73.93;33.57;;;3.90;99.90;;;;;;5044674;28;20460;-79
2020/12/11 00:31:10;;;;;;;74.13;36.07;;;3.90;99.90;;;;;;5060798;28;20475;-79
2020/12/11 00:33:38;;;;;;;65.80;33.60;;;3.90;99.90;;;;;;5060353;28;20823;-79
2020/12/11 00:36:05;;;;;;;72.07;34.47;;;3.90;99.90;;;;;;5043405;28;20471;-79
2020/12/11 00:38:33;;;;;;;77.57;36.20;;;4.00;99.90;;;;;;5057758;28;20446;-79
2020/12/11 00:41:03;;;;;;;74.43;33.10;;;3.90;99.90;;;;;;5042296;28;20461;-79
2020/12/11 00:43:30;;;;;;;71.23;35.63;;;3.90;99.90;;;;;;5057555;28;20443;-79
2020/12/11 00:45:57;;;;;;;71.10;37.27;;;4.00;99.90;;;;;;5041320;28;20538;-79
2020/12/11 00:48:24;;;;;;;72.10;35.00;;;4.00;99.90;;;;;;5057681;28;20454;-79
2020/12/11 00:50:51;;;;;;;75.57;35.97;;;3.90;99.90;;;;;;5043044;28;20453;-79
2020/12/11 00:53:19;;;;;;;79.37;36.50;;;4.00;99.90;;;;;;5041624;28;20980;-79
2020/12/11 00:55:47;;;;;;;66.60;34.37;;;4.00;99.90;;;;;;5056754;28;20861;-79
2020/12/11 00:58:15;;;;;;;74.27;35.37;;;4.00;99.90;;;;;;5056618;28;20871;-79
2020/12/11 01:00:43;;;;;;;71.87;37.50;;;3.90;99.90;;;;;;5041960;28;20994;-79
2020/12/11 01:03:10;;;;;;;82.17;37.37;;;3.90;99.90;;;;;;5056934;28;20442;-79
2020/12/11 01:05:37;;;;;;;71.20;37.73;;;4.00;99.90;;;;;;5041620;28;20558;-79
2020/12/11 01:08:05;;;;;;;71.67;35.03;;;4.00;99.90;;;;;;5057495;28;20863;-79
2020/12/11 01:10:33;;;;;;;73.63;35.40;;;4.00;99.90;;;;;;5057287;28;20800;-79
2020/12/11 01:13:01;;;;;;;77.47;37.13;;;4.00;99.90;;;;;;5057192;28;20451;-79
2020/12/11 01:15:28;;;;;;;82.20;38.27;;;4.00;99.90;;;;;;5057235;28;20447;-79
2020/12/11 01:17:56;;;;;;;70.77;36.37;;;4.00;99.90;;;;;;5057343;28;20497;-79
2020/12/11 01:20:23;;;;;;;72.77;39.00;;;4.00;99.90;;;;;;5057878;28;20478;-79
2020/12/11 01:22:50;;;;;;;62.00;35.10;;;4.00;99.90;;;;;;5056840;28;20443;-79
2020/12/11 01:25:19;;;;;;;70.00;36.57;;;4.00;99.90;;;;;;5059253;28;20467;-79
2020/12/11 01:27:46;;;;;;;69.10;34.60;;;4.00;99.90;;;;;;5057340;28;20549;-79
2020/12/11 01:30:14;;;;;;;76.23;37.77;;;4.00;99.90;;;;;;5043087;28;20454;-79
2020/12/11 01:32:41;;;;;;;77.47;36.70;;;3.90;99.90;;;;;;5041633;28;20518;-79
2020/12/11 01:35:08;;;;;;;63.63;32.87;;;4.00;99.90;;;;;;5040294;28;20478;-79
2020/12/11 01:37:35;;;;;;;74.43;35.03;;;4.00;99.90;;;;;;5056598;28;20530;-79
2020/12/11 01:40:04;;;;;;;61.13;36.70;;;4.00;99.90;;;;;;5042215;28;20786;-79
2020/12/11 01:42:31;;;;;;;69.00;35.27;;;3.90;99.90;;;;;;5056909;28;20807;-79
2020/12/11 01:44:58;;;;;;;61.97;36.23;;;3.90;99.90;;;;;;5041697;28;20474;-79
2020/12/11 01:47:27;;;;;;;71.40;37.97;;;3.90;99.90;;;;;;5042216;28;20506;-79
2020/12/11 01:49:56;;;;;;;63.10;33.93;;;4.00;99.90;;;;;;5057120;28;20505;-79
2020/12/11 01:52:23;;;;;;;66.00;38.57;;;4.00;99.90;;;;;;5057569;28;20960;-79
2020/12/11 01:54:50;;;;;;;68.47;35.70;;;3.90;99.90;;;;;;5041071;28;20451;-79
2020/12/11 01:57:23;;;;;;;64.47;32.50;;;3.90;99.90;;;;;;5042039;28;20469;-79
2020/12/11 01:59:53;;;;;;;64.30;32.60;;;3.90;99.90;;;;;;5042163;28;20419;-79
2020/12/11 02:02:21;;;;;;;64.43;32.70;;;3.90;99.90;;;;;;5058932;28;20470;-79
2020/12/11 02:04:50;;;;;;;64.33;32.30;;;3.90;99.90;;;;;;5057415;28;20541;-79
2020/12/11 02:07:17;;;;;;;60.53;35.78;;;3.90;99.90;;;;;;5041911;28;20950;-79
2020/12/11 02:09:44;;;;;;;62.67;33.07;;;4.00;99.90;;;;;;5058174;28;20192;-79
2020/12/11 02:12:12;;;;;;;62.30;35.27;;;4.00;99.90;;;;;;5043817;28;20888;-79
2020/12/11 02:14:39;;;;;;;59.83;33.43;;;4.00;99.90;;;;;;5057396;28;20810;-79
2020/12/11 02:17:07;;;;;;;64.13;34.70;;;4.00;99.90;;;;;;5040878;28;20804;-79
2020/12/11 02:19:35;;;;;;;64.40;32.70;;;4.00;99.90;;;;;;5042050;28;20932;-79
2020/12/11 02:22:05;;;;;;;64.50;32.50;;;3.90;99.90;;;;;;5055989;28;20470;-79
2020/12/11 02:24:34;;;;;;;54.87;34.00;;;3.90;99.90;;;;;;5041060;28;20419;-79
2020/12/11 02:27:03;;;;;;;59.53;33.20;;;3.90;99.90;;;;;;5040971;28;20466;-79
2020/12/11 02:29:30;;;;;;;67.87;35.00;;;3.90;99.90;;;;;;5056310;28;20477;-79
2020/12/11 02:31:57;;;;;;;65.27;34.17;;;3.90;99.90;;;;;;5055839;28;20470;-78
2020/12/11 02:34:25;;;;;;;55.63;36.00;;;3.90;99.90;;;;;;5042226;28;20442;-78
2020/12/11 02:36:52;;;;;;;56.80;30.80;;;3.90;99.90;;;;;;5041162;28;20833;-79
2020/12/11 02:39:20;;;;;;;56.43;30.30;;;3.90;99.90;;;;;;5041595;28;20933;-79
2020/12/11 02:41:48;;;;;;;60.90;31.70;;;3.90;99.90;;;;;;5041974;28;21037;-79
2020/12/11 02:44:15;;;;;;;63.43;34.63;;;3.90;99.90;;;;;;5056692;28;20449;-79
2020/12/11 02:46:43;;;;;;;51.37;31.10;;;3.80;99.90;;;;;;5056265;28;20521;-79
2020/12/11 02:49:10;;;;;;;57.00;32.10;;;3.80;99.90;;;;;;5056165;28;20828;-79
2020/12/11 02:51:37;;;;;;;52.83;30.77;;;3.80;99.90;;;;;;5041097;28;20486;-79
2020/12/11 02:54:05;;;;;;;50.53;33.73;;;3.80;99.90;;;;;;5041036;28;20442;-79
2020/12/11 02:56:33;;;;;;;51.87;32.67;;;3.80;99.90;;;;;;5039812;28;20462;-79
2020/12/11 02:59:00;;;;;;;57.60;33.13;;;3.80;99.90;;;;;;5054473;28;20545;-79
2020/12/11 03:01:35;;;;;;;48.77;31.93;;;3.80;99.90;;;;;;5054372;28;20477;-79
2020/12/11 03:04:08;;;;;;;51.77;31.53;;;3.80;99.90;;;;;;5053811;28;20503;-79
2020/12/11 03:06:35;;;;;;;49.53;30.23;;;3.80;99.90;;;;;;5040198;28;20517;-79
2020/12/11 03:09:04;;;;;;;52.50;33.33;;;3.80;99.90;;;;;;5039857;28;20940;-79
2020/12/11 03:11:32;;;;;;;58.43;33.03;;;3.80;99.90;;;;;;5054966;28;20473;-79
2020/12/11 03:13:59;;;;;;;53.77;30.53;;;3.80;99.90;;;;;;5055484;28;20466;-79
2020/12/11 03:16:26;;;;;;;53.70;34.17;;;3.90;99.90;;;;;;5055811;28;20451;-79
2020/12/11 03:18:54;;;;;;;52.47;31.77;;;3.70;99.90;;;;;;5040091;28;20441;-79
2020/12/11 03:21:22;;;;;;;55.27;29.40;;;3.80;99.90;;;;;;5040834;28;20454;-78
2020/12/11 03:23:50;;;;;;;47.83;34.37;;;3.80;99.90;;;;;;5040648;28;20439;-79
2020/12/11 03:26:17;;;;;;;60.13;31.93;;;3.80;99.90;;;;;;5056691;28;20823;-79
2020/12/11 03:28:47;;;;;;;51.83;32.63;;;3.80;99.90;;;;;;5041110;28;20442;-79
2020/12/11 03:31:16;;;;;;;51.87;33.70;;;3.70;99.90;;;;;;5041503;28;20542;-79
2020/12/11 03:33:43;;;;;;;53.17;33.90;;;3.70;99.90;;;;;;5040855;28;20427;-79
2020/12/11 03:36:11;;;;;;;49.87;31.60;;;3.70;99.90;;;;;;5040502;28;20446;-79
2020/12/11 03:38:38;;;;;;;47.27;31.70;;;3.70;99.90;;;;;;5041301;28;20548;-79
2020/12/11 03:41:06;;;;;;;50.70;32.40;;;3.70;99.90;;;;;;5039732;28;20511;-79
2020/12/11 03:43:34;;;;;;;51.40;31.07;;;3.70;99.90;;;;;;5057206;28;20445;-79
2020/12/11 03:46:02;;;;;;;49.23;32.83;;;3.70;99.90;;;;;;5045119;28;20992;-79
2020/12/11 03:48:29;;;;;;;49.17;30.23;;;3.70;99.90;;;;;;5061600;28;20450;-79
2020/12/11 03:50:56;;;;;;;49.30;30.87;;;3.70;99.90;;;;;;5060930;28;20474;-79
2020/12/11 03:53:23;;;;;;;49.03;30.17;;;3.70;99.90;;;;;;5044789;28;20433;-79
2020/12/11 03:55:52;;;;;;;50.70;31.50;;;3.70;99.90;;;;;;5059378;28;20920;-79
2020/12/11 03:58:19;;;;;;;47.67;31.40;;;3.70;99.90;;;;;;5058735;28;20442;-79
2020/12/11 04:00:46;;;;;;;44.37;31.07;;;3.70;99.90;;;;;;5059012;28;20467;-79
2020/12/11 04:03:15;;;;;;;50.17;30.13;;;3.70;99.90;;;;;;5058980;28;20447;-79
2020/12/11 04:05:42;;;;;;;45.80;29.67;;;3.70;99.90;;;;;;5044714;28;20485;-79
2020/12/11 04:08:09;;;;;;;48.97;30.10;;;3.70;99.90;;;;;;5044231;28;20439;-79
2020/12/11 04:10:36;;;;;;;45.20;27.63;;;3.70;99.90;;;;;;5059785;28;20469;-79
2020/12/11 04:13:03;;;;;;;51.33;30.97;;;3.70;99.90;;;;;;5059964;28;20447;-79
2020/12/11 04:15:30;;;;;;;46.93;31.50;;;3.70;99.90;;;;;;5043246;28;20522;-79
2020/12/11 04:17:57;;;;;;;45.72;28.02;;;3.70;99.90;;;;;;5044306;28;20481;-79
2020/12/11 04:20:25;;;;;;;46.93;29.90;;;3.70;99.90;;;;;;5042178;28;20247;-79
2020/12/11 04:22:53;;;;;;;50.03;30.50;;;3.70;99.90;;;;;;5042196;28;20521;-79
2020/12/11 04:25:20;;;;;;;44.33;29.60;;;3.70;99.90;;;;;;5044123;28;20447;-79
2020/12/11 04:27:48;;;;;;;46.55;28.20;;;3.70;99.90;;;;;;5042235;28;20926;-80
2020/12/11 04:30:15;;;;;;;45.27;29.93;;;3.80;99.90;;;;;;5060028;28;20243;-78
2020/12/11 04:32:43;;;;;;;41.53;28.87;;;3.90;99.90;;;;;;5059053;28;20455;-78
2020/12/11 04:35:10;;;;;;;42.07;28.27;;;3.80;99.90;;;;;;5059359;28;20469;-78
2020/12/11 04:37:38;;;;;;;49.27;32.40;;;3.80;99.90;;;;;;5065144;28;20501;-78
2020/12/11 04:40:05;;;;;;;50.23;31.27;;;3.70;99.90;;;;;;5052373;28;20478;-78
2020/12/11 04:42:36;;;;;;;43.43;29.10;;;3.70;99.90;;;;;;5065429;28;20469;-78
2020/12/11 04:45:03;;;;;;;47.20;33.70;;;3.70;99.90;;;;;;5057915;28;20538;-79
2020/12/11 04:47:30;;;;;;;42.73;28.70;;;3.70;99.90;;;;;;5057915;28;20904;-79
2020/12/11 04:49:58;;;;;;;43.93;28.70;;;3.70;99.90;;;;;;5043621;28;20496;-79
2020/12/11 04:52:30;;;;;;;44.33;28.90;;;3.70;99.90;;;;;;5058049;28;20465;-79
2020/12/11 04:55:00;;;;;;;44.13;27.13;;;3.70;99.90;;;;;;5056452;28;20439;-79
2020/12/11 04:57:32;;;;;;;43.07;29.17;;;3.70;99.90;;;;;;5040899;28;20498;-79
2020/12/11 04:59:59;;;;;;;41.63;28.67;;;3.70;99.90;;;;;;5041425;28;20428;-79
2020/12/11 05:02:28;;;;;;;40.13;27.70;;;3.70;99.90;;;;;;5043968;28;20509;-79
2020/12/11 05:04:58;;;;;;;43.30;27.47;;;3.70;99.90;;;;;;5043900;28;20465;-79
2020/12/11 05:07:27;;;;;;;44.43;29.53;;;3.70;99.90;;;;;;5043382;28;20513;-79
2020/12/11 05:09:55;;;;;;;43.87;30.30;;;3.70;99.90;;;;;;5043241;28;20940;-79
2020/12/11 05:12:24;;;;;;;40.67;30.30;;;3.60;99.90;;;;;;5044156;28;20494;-79
2020/12/11 05:15:02;;;;;;;44.70;31.10;;;3.70;99.90;;;;;;5059418;28;20941;-79
2020/12/11 05:17:31;;;;;;;38.67;26.60;;;3.70;99.90;;;;;;5043096;28;20505;-79
2020/12/11 05:19:59;;;;;;;42.23;27.23;;;3.70;99.90;;;;;;5044648;28;20430;-79
2020/12/11 05:22:31;;;;;;;40.07;27.80;;;3.70;99.90;;;;;;5060154;28;20875;-79
2020/12/11 05:24:58;;;;;;;37.80;27.17;;;3.70;99.90;;;;;;5044373;28;20427;-79
2020/12/11 05:27:35;;;;;;;38.37;28.33;;;3.70;99.90;;;;;;5058071;28;20478;-79
2020/12/11 05:30:21;;;;;;;40.77;30.30;;;3.70;99.90;;;;;;5058181;28;20443;-79
2020/12/11 05:32:51;;;;;;;38.73;27.07;;;3.70;99.90;;;;;;5059955;28;20443;-79
2020/12/11 05:35:36;;;;;;;40.70;27.23;;;3.70;99.90;;;;;;5058230;28;20442;-79
2020/12/11 05:38:05;;;;;;;40.00;27.53;;;3.70;99.90;;;;;;5043772;28;20462;-79
2020/12/11 05:40:34;;;;;;;40.80;25.73;;;3.70;99.90;;;;;;5042364;28;20463;-79
2020/12/11 05:43:12;;;;;;;43.90;32.07;;;3.70;99.90;;;;;;5058003;28;20447;-79
2020/12/11 05:45:44;;;;;;;37.80;28.73;;;3.70;99.90;;;;;;5057922;28;20446;-79
2020/12/11 05:48:11;;;;;;;36.90;26.43;;;3.70;99.90;;;;;;5058473;28;20442;-79
2020/12/11 05:50:39;;;;;;;40.53;29.00;;;3.70;99.90;;;;;;5058512;28;20566;-79
2020/12/11 05:53:06;;;;;;;36.50;26.20;;;3.70;99.90;;;;;;5058426;28;20534;-78
2020/12/11 05:55:34;;;;;;;36.83;27.97;;;3.70;99.90;;;;;;5042927;28;20450;-78
2020/12/11 05:58:02;;;;;;;39.50;27.83;;;3.70;99.90;;;;;;5058394;28;20499;-78
2020/12/11 06:00:30;;;;;;;37.10;24.30;;;3.70;99.90;;;;;;5041497;28;20541;-78
2020/12/11 06:02:57;;;;;;;39.20;27.00;;;3.70;99.90;;;;;;5059243;28;20458;-78
2020/12/11 06:05:25;;;;;;;36.07;24.60;;;3.70;99.90;;;;;;5042817;28;20466;-79
2020/12/11 06:07:53;;;;;;;37.70;27.80;;;3.60;99.90;;;;;;5046952;28;20463;-79
2020/12/11 06:10:22;;;;;;;37.00;25.27;;;3.60;99.90;;;;;;5064745;28;20463;-79
2020/12/11 06:12:50;;;;;;;38.47;27.30;;;3.60;99.90;;;;;;5064508;28;20970;-79
2020/12/11 06:15:28;;;;;;;34.50;26.57;;;3.60;99.90;;;;;;5048760;28;20994;-79
2020/12/11 06:18:03;;;;;;;33.77;26.63;;;3.60;99.90;;;;;;5047992;28;20417;-79
2020/12/11 06:20:31;;;;;;;33.70;25.43;;;3.50;99.90;;;;;;5039774;28;21014;-79
2020/12/11 06:23:21;;;;;;;33.87;25.33;;;3.50;99.90;;;;;;5057267;28;20482;-79
2020/12/11 06:25:51;;;;;;;31.60;22.73;;;3.50;99.90;;;;;;5042821;28;20426;-79
2020/12/11 06:28:39;;;;;;;34.53;25.87;;;3.40;99.90;;;;;;5042361;28;20482;-79
2020/12/11 06:31:08;;;;;;;36.07;26.10;;;3.40;99.90;;;;;;5033886;28;20947;-79
2020/12/11 06:33:37;;;;;;;30.17;23.77;;;3.30;99.90;;;;;;5057910;28;20457;-79
2020/12/11 06:36:06;;;;;;;27.87;21.73;;;3.30;99.90;;;;;;5041652;28;20450;-79
2020/12/11 06:38:50;;;;;;;32.60;24.90;;;3.30;99.90;;;;;;5056973;28;20447;-79
2020/12/11 06:41:39;;;;;;;32.27;22.70;;;3.30;99.90;;;;;;5040618;28;20517;-79
2020/12/11 06:44:17;;;;;;;28.90;22.83;;;3.20;99.90;;;;;;5057079;28;20577;-79
2020/12/11 06:47:02;;;;;;;32.80;24.83;;;3.20;99.90;;;;;;5057352;28;20497;-79
2020/12/11 06:49:31;;;;;;;32.00;26.13;;;3.10;99.90;;;;;;5057538;28;20458;-79
2020/12/11 06:52:14;;;;;;;33.30;25.97;;;3.10;99.90;;;;;;5041920;28;20481;-79
2020/12/11 06:54:54;;;;;;;31.07;25.57;;;3.20;99.90;;;;;;5042255;28;20442;-79
2020/12/11 06:57:39;;;;;;;35.28;24.50;;;3.10;99.90;;;;;;5060599;28;20455;-79
2020/12/11 07:00:35;;;;;;;35.40;25.23;;;3.10;99.90;;;;;;5058147;28;20220;-79
2020/12/11 07:03:33;;;;;;;32.50;24.37;;;3.00;99.90;;;;;;5043038;28;20427;-79
2020/12/11 07:06:10;;;;;;;32.20;23.17;;;3.00;99.90;;;;;;5058228;28;20443;-79
2020/12/11 07:08:38;;;;;;;33.27;23.13;;;3.00;99.90;;;;;;5042781;28;20419;-79
2020/12/11 07:11:10;;;;;;;31.63;23.77;;;3.00;99.90;;;;;;5056810;28;21010;-79
2020/12/11 07:13:46;;;;;;;31.97;24.77;;;3.00;99.90;;;;;;5040091;28;20439;-79
2020/12/11 07:16:14;;;;;;;34.57;23.77;;;3.00;99.90;;;;;;5056342;28;20439;-79
2020/12/11 07:18:42;;;;;;;33.70;24.40;;;3.00;99.90;;;;;;5058990;28;20435;-79
2020/12/11 07:21:11;;;;;;;33.60;25.83;;;2.90;99.90;;;;;;5044977;28;20516;-79
2020/12/11 07:23:39;;;;;;;33.40;24.83;;;3.00;99.90;;;;;;5060924;28;20823;-79
2020/12/11 07:26:06;;;;;;;31.03;25.17;;;3.00;99.90;;;;;;5060672;28;20530;-79
2020/12/11 07:28:34;;;;;;;34.30;21.80;;;3.00;99.90;;;;;;5060529;28;20880;-79
2020/12/11 07:31:02;;;;;;;30.83;22.57;;;3.00;99.90;;;;;;5060200;28;20540;-79
2020/12/11 07:33:33;;;;;;;29.57;24.43;;;2.90;99.90;;;;;;5060436;28;20447;-79
2020/12/11 07:36:05;;;;;;;28.43;24.50;;;3.00;99.90;;;;;;5061342;28;20803;-79
2020/12/11 07:38:33;;;;;;;31.47;23.47;;;2.90;99.90;;;;;;5059658;28;20451;-79
2020/12/11 07:41:05;;;;;;;30.40;24.13;;;2.90;99.90;;;;;;5060182;28;20569;-79
2020/12/11 07:43:33;;;;;;;33.17;24.80;;;3.00;99.90;;;;;;5060573;28;20514;-79
2020/12/11 07:46:00;;;;;;;29.87;23.90;;;2.90;99.90;;;;;;5060833;28;20458;-79
2020/12/11 07:48:28;;;;;;;34.57;23.53;;;2.90;99.90;;;;;;5060874;28;20460;-79
2020/12/11 07:51:01;;;;;;;30.50;22.17;;;2.90;99.90;;;;;;5061244;28;20474;-78
2020/12/11 07:53:28;;;;;;;34.27;24.90;;;2.90;99.90;;;;;;5042409;28;20494;-78
2020/12/11 07:55:56;;;;;;;27.93;23.87;;;2.90;99.90;;;;;;5059446;28;20537;-78
2020/12/11 07:58:25;;;;;;;34.43;23.50;;;2.90;99.90;;;;;;5044209;28;20451;-78
2020/12/11 08:00:52;;;;;;;31.10;24.87;;;2.90;99.90;;;;;;5044674;28;20564;-79
2020/12/11 08:03:20;;;;;;;31.07;25.40;;;2.90;99.90;;;;;;5046223;28;20438;-79
2020/12/11 08:05:47;;;;;;;29.17;23.93;;;2.90;99.90;;;;;;5059915;28;20977;-79
2020/12/11 08:08:14;;;;;;;26.90;23.00;;;2.90;99.90;;;;;;5060004;28;20565;-79
2020/12/11 08:10:43;;;;;;;29.43;23.43;;;2.90;99.90;;;;;;5045588;28;20512;-79
2020/12/11 08:13:16;;;;;;;29.70;23.67;;;2.90;99.90;;;;;;5045280;28;20444;-79
2020/12/11 08:15:45;;;;;;;27.60;22.70;;;2.90;99.90;;;;;;5060861;28;20462;-79
2020/12/11 08:18:22;;;;;;;30.30;24.23;;;2.90;99.90;;;;;;5045797;28;20437;-79
2020/12/11 08:20:57;;;;;;;27.77;21.63;;;2.90;99.90;;;;;;5045427;28;20454;-79
2020/12/11 08:23:37;;;;;;;28.87;23.90;;;2.90;99.90;;;;;;5046177;28;20847;-79
2020/12/11 08:26:16;;;;;;;32.73;24.73;;;3.00;99.90;;;;;;5060968;28;20493;-79
2020/12/11 08:28:46;;;;;;;28.20;21.57;;;2.90;99.90;;;;;;5060133;28;20548;-79
2020/12/11 08:31:20;;;;;;;30.40;24.20;;;2.90;99.90;;;;;;5059232;28;20477;-79
2020/12/11 08:34:03;;;;;;;29.93;25.17;;;2.90;99.90;;;;;;5044626;28;20429;-79
2020/12/11 08:36:32;;;;;;;28.53;25.20;;;2.90;99.90;;;;;;5060454;28;20461;-79
2020/12/11 08:39:11;;;;;;;29.37;23.20;;;3.00;99.90;;;;;;5061341;28;20473;-79
2020/12/11 08:41:42;;;;;;;30.33;22.63;;;3.00;99.90;;;;;;5047947;28;20505;-79
2020/12/11 08:44:30;;;;;;;28.40;23.23;;;3.00;99.90;;;;;;5060835;28;20940;-79
2020/12/11 08:47:08;;;;;;;28.23;23.47;;;3.00;99.90;;;;;;5045728;28;20489;-79
2020/12/11 08:49:45;;;;;;;30.90;23.70;;;3.00;99.90;;;;;;5057834;28;20499;-79
2020/12/11 08:52:12;;;;;;;29.13;21.93;;;3.00;99.90;;;;;;5057158;28;20486;-79
2020/12/11 08:54:39;;;;;;;30.43;24.53;;;3.00;99.90;;;;;;5057510;28;20478;-79
2020/12/11 08:57:07;;;;;;;30.37;25.40;;;3.00;99.90;;;;;;5043179;28;20446;-79
2020/12/11 08:59:35;;;;;;;30.33;24.20;;;3.00;99.90;;;;;;5059247;28;20482;-79
2020/12/11 09:02:03;;;;;;;28.00;21.53;;;3.10;99.90;;;;;;5041418;28;20471;-79
2020/12/11 09:04:30;;;;;;;27.73;23.53;;;3.10;99.90;;;;;;5042486;28;20451;-79
2020/12/11 09:06:57;;;;;;;27.80;22.33;;;3.10;99.90;;;;;;5058234;28;20972;-79
2020/12/11 09:09:24;;;;;;;29.77;24.43;;;3.10;99.90;;;;;;5057645;28;20469;-79
2020/12/11 09:11:51;;;;;;;26.37;22.90;;;3.10;99.90;;;;;;5058472;28;20478;-79
2020/12/11 09:14:19;;;;;;;27.57;22.00;;;3.10;99.90;;;;;;5058382;28;20525;-79
2020/12/11 09:16:47;;;;;;;26.63;23.73;;;3.20;99.90;;;;;;5042759;28;20466;-79
2020/12/11 09:19:16;;;;;;;24.83;21.47;;;3.20;99.90;;;;;;5058018;28;20457;-79
2020/12/11 09:21:43;;;;;;;25.57;22.87;;;3.20;99.90;;;;;;5041933;28;20510;-79
2020/12/11 09:24:11;;;;;;;28.23;23.93;;;3.20;99.90;;;;;;5057361;28;20442;-79
2020/12/11 09:26:38;;;;;;;27.20;23.43;;;3.20;99.90;;;;;;5057840;28;20471;-79
2020/12/11 09:29:12;;;;;;;26.00;20.73;;;3.20;99.90;;;;;;5057624;28;20510;-79
2020/12/11 09:31:42;;;;;;;27.20;22.50;;;3.30;99.90;;;;;;5057013;28;20491;-78
2020/12/11 09:34:11;;;;;;;25.30;20.93;;;3.30;99.90;;;;;;5060540;28;20506;-78
2020/12/11 09:36:42;;;;;;;25.53;22.70;;;3.30;99.90;;;;;;5061931;28;20446;-78
2020/12/11 09:39:09;;;;;;;29.07;23.17;;;3.30;99.90;;;;;;5061680;28;20445;-78
2020/12/11 09:41:37;;;;;;;25.70;22.50;;;3.30;99.90;;;;;;5061116;28;20541;-78
2020/12/11 09:46:59;;;;;;;26.40;22.13;;;3.40;99.90;;;;;;5062968;28;20496;-78
2020/12/11 09:49:34;;;;;;;26.77;20.40;;;3.40;99.90;;;;;;5061488;28;20476;-78
2020/12/11 09:52:16;;;;;;;26.73;22.17;;;3.40;99.90;;;;;;5061001;28;20473;-78
2020/12/11 09:54:44;;;;;;;27.30;21.37;;;3.40;99.90;;;;;;5060263;28;20431;-78
2020/12/11 09:57:11;;;;;;;26.10;21.57;;;3.50;99.90;;;;;;5060447;28;20545;-78
2020/12/11 09:59:47;;;;;;;24.97;19.43;;;3.50;99.90;;;;;;5062044;28;20445;-78
2020/12/11 10:02:20;;;;;;;26.57;20.50;;;3.50;99.90;;;;;;5061937;28;20427;-79
2020/12/11 10:04:49;;;;;;;27.17;22.27;;;3.50;99.90;;;;;;5059488;28;20437;-79
2020/12/11 10:07:17;;;;;;;28.07;22.90;;;3.50;99.90;;;;;;5061910;28;20572;-78
2020/12/11 10:09:48;;;;;;;26.57;21.40;;;3.50;99.90;;;;;;5056931;28;20445;-78
2020/12/11 10:12:17;;;;;;;24.00;21.50;;;3.60;99.90;;;;;;5093729;28;20440;-78
2020/12/11 10:14:47;;;;;;;24.70;20.90;;;3.60;99.90;;;;;;5060474;28;20446;-78
2020/12/11 10:17:15;;;;;;;23.60;21.03;;;3.60;99.90;;;;;;5061874;28;20442;-79
2020/12/11 10:19:42;;;;;;;23.00;19.77;;;3.60;99.90;;;;;;5094507;28;20438;-79
2020/12/11 10:22:11;;;;;;;21.87;19.40;;;3.60;99.90;;;;;;5061800;28;20966;-79
2020/12/11 10:24:38;;;;;;;23.67;20.40;;;3.60;99.90;;;;;;5061619;28;20518;-79
2020/12/11 10:27:05;;;;;;;24.67;21.77;;;3.70;99.90;;;;;;5059243;28;20912;-79
2020/12/11 10:29:33;;;;;;;24.70;20.37;;;3.70;99.90;;;;;;5058445;28;20442;-79
2020/12/11 10:32:00;;;;;;;23.23;20.83;;;3.70;99.90;;;;;;5060641;28;20464;-79
2020/12/11 10:34:27;;;;;;;22.83;19.70;;;3.70;99.90;;;;;;5059093;28;20449;-79
2020/12/11 10:36:55;;;;;;;22.20;19.70;;;3.70;99.90;;;;;;5059014;28;20552;-78
2020/12/11 10:39:23;;;;;;;21.90;18.13;;;3.80;99.90;;;;;;5061079;28;20437;-79
2020/12/11 10:41:50;;;;;;;22.77;20.37;;;3.80;99.90;;;;;;5059180;28;20998;-79
2020/12/11 10:44:18;;;;;;;22.77;20.37;;;3.80;99.90;;;;;;5059354;28;20457;-79
2020/12/11 10:46:49;;;;;;;21.60;19.30;;;3.80;99.90;;;;;;5059638;28;20541;-79
2020/12/11 10:49:17;;;;;;;20.67;18.47;;;3.80;99.90;;;;;;5060056;28;20488;-79
2020/12/11 10:51:46;;;;;;;22.73;19.60;;;3.90;99.90;;;;;;5060108;28;20545;-79
2020/12/11 10:54:17;;;;;;;21.10;18.90;;;3.90;99.90;;;;;;5091994;28;20450;-78
2020/12/11 10:56:45;;;;;;;23.00;19.00;;;3.90;99.90;;;;;;5059741;28;20463;-79
2020/12/11 10:59:14;;;;;;;21.33;19.13;;;3.90;99.90;;;;;;5060834;28;20449;-79
2020/12/11 11:01:41;;;;;;;20.20;18.20;;;3.90;99.90;;;;;;5060049;28;20856;-79
2020/12/11 11:04:09;;;;;;;21.70;19.20;;;3.90;99.90;;;;;;5061475;28;20848;-79
2020/12/11 11:06:38;;;;;;;19.13;17.13;;;3.90;99.90;;;;;;5059856;28;20465;-79
2020/12/11 11:09:16;;;;;;;20.13;18.03;;;4.00;99.90;;;;;;5061101;28;20471;-79
2020/12/11 11:11:46;;;;;;;21.27;19.07;;;4.00;99.90;;;;;;5061995;28;20521;-79
2020/12/11 11:14:21;;;;;;;20.87;18.63;;;4.00;99.90;;;;;;5094297;28;20434;-79
2020/12/11 11:19:36;;;;;;;21.17;18.57;;;4.00;99.90;;;;;;5061089;28;20546;-79
2020/12/11 11:22:20;;;;;;;20.57;17.07;;;4.00;99.90;;;;;;5061771;28;20489;-79
2020/12/11 11:27:35;;;;;;;20.57;18.37;;;4.10;99.90;;;;;;5057873;28;20461;-79
2020/12/11 11:30:04;;;;;;;22.13;19.87;;;4.10;99.90;;;;;;5059808;28;20900;-78
2020/12/11 11:32:32;;;;;;;20.77;18.67;;;4.10;99.90;;;;;;5060487;28;20854;-78
2020/12/11 11:34:59;;;;;;;20.57;18.37;;;4.20;99.90;;;;;;5059964;28;20425;-78
2020/12/11 11:37:27;;;;;;;20.40;17.70;;;4.20;99.90;;;;;;5060460;28;20473;-78
2020/12/11 11:39:54;;;;;;;20.83;18.53;;;4.20;99.90;;;;;;5060014;28;20446;-78
2020/12/11 11:42:23;;;;;;;19.80;17.80;;;4.20;99.90;;;;;;5060320;28;20464;-79
2020/12/11 11:44:54;;;;;;;17.73;15.83;;;4.30;99.90;;;;;;5092972;28;20519;-79
2020/12/11 11:47:23;;;;;;;20.33;18.17;;;4.30;99.90;;;;;;5060775;28;20484;-79
2020/12/11 11:50:03;;;;;;;20.83;17.80;;;4.30;99.90;;;;;;5060291;28;20465;-79
2020/12/11 11:52:34;;;;;;;19.83;17.77;;;4.30;99.90;;;;;;5060884;28;20426;-79
2020/12/11 11:55:01;;;;;;;19.67;16.87;;;4.30;99.90;;;;;;5061326;28;20418;-79
2020/12/11 11:57:28;;;;;;;20.13;18.00;;;4.30;99.90;;;;;;5061012;28;20540;-79
2020/12/11 11:59:56;;;;;;;19.70;17.60;;;4.30;99.90;;;;;;5060251;28;20462;-79
2020/12/11 12:02:25;;;;;;;21.80;17.90;;;4.30;99.90;;;;;;5094037;28;20445;-79
2020/12/11 12:04:53;;;;;;;19.23;17.23;;;4.40;99.90;;;;;;5062060;28;20509;-79
2020/12/11 12:07:20;;;;;;;21.20;18.37;;;4.40;99.90;;;;;;5062487;28;20469;-78
2020/12/11 12:09:47;;;;;;;20.70;18.57;;;4.50;99.90;;;;;;5063428;28;20982;-79
2020/12/11 12:12:14;;;;;;;19.40;16.70;;;4.50;99.90;;;;;;5063890;28;20521;-79
2020/12/11 12:14:42;;;;;;;19.23;17.13;;;4.50;99.90;;;;;;5061474;28;20460;-79
2020/12/11 12:17:09;;;;;;;17.83;15.93;;;4.50;99.90;;;;;;5061590;28;20784;-79
2020/12/11 12:19:41;;;;;;;18.60;16.70;;;4.50;99.90;;;;;;5062655;28;20438;-79
2020/12/11 12:30:47;;;;;;;18.37;16.47;;;4.70;99.90;;;;;;5056128;28;20219;-79
2020/12/11 12:39:23;;;;;;;18.73;16.73;;;4.70;99.90;;;;;;5007220;28;20199;-79
2020/12/11 12:44:36;;;;;;;20.03;17.90;;;4.70;99.90;;;;;;5060872;28;20449;-78
2020/12/11 12:47:03;;;;;;;17.50;15.70;;;4.70;99.90;;;;;;5060839;28;20430;-78
2020/12/11 12:49:30;;;;;;;18.87;17.07;;;4.70;99.90;;;;;;5062364;28;20437;-78
2020/12/11 12:51:59;;;;;;;18.07;16.17;;;4.70;99.90;;;;;;5060671;28;20470;-78
2020/12/11 12:54:26;;;;;;;18.83;16.93;;;4.80;99.90;;;;;;5060369;28;20454;-78
2020/12/11 12:56:55;;;;;;;18.00;16.07;;;4.80;99.90;;;;;;5064634;28;20462;-78
2020/12/11 12:59:32;;;;;;;18.80;15.37;;;4.80;99.90;;;;;;5094730;28;20442;-78
2020/12/11 13:02:21;;;;;;;18.90;17.10;;;4.80;99.90;;;;;;5061249;28;20920;-78
2020/12/11 13:04:56;;;;;;;19.73;17.63;;;4.80;99.90;;;;;;5094587;28;20438;-78
2020/12/11 13:07:25;;;;;;;17.03;15.23;;;4.80;99.90;;;;;;5061308;28;20458;-78
2020/12/11 13:09:52;;;;;;;17.50;15.60;;;4.80;99.90;;;;;;5061386;28;20445;-78
2020/12/11 13:12:22;;;;;;;18.63;16.53;;;4.80;99.90;;;;;;5061160;28;20482;-78
2020/12/11 13:14:49;;;;;;;17.90;16.10;;;4.80;99.90;;;;;;5060669;28;20434;-78